Time;durP1;ratioP1;P1;durP2;ratioP2;P2;SDS_P1;SDS_P2;PMS_P1;PMS_P2;Temp;Humidity;BMP_temperature;BMP_pressure;BME280_temperature;BME280_humidity;BME280_pressure;Samples;Min_cycle;Max_cycle;Signal;HPM_P1;HPM_P2
2022/05/11 00:00:13;;;;;;;5.00;4.53;;;14.70;99.90;;;;;;5055249;28;20049;-59
2022/05/11 00:02:39;;;;;;;4.78;4.00;;;14.70;99.90;;;;;;5055845;28;20448;-58
2022/05/11 00:05:07;;;;;;;4.72;3.70;;;14.60;99.90;;;;;;5055259;28;20039;-56
2022/05/11 00:07:33;;;;;;;4.65;4.25;;;14.50;99.90;;;;;;5054480;28;20066;-58
2022/05/11 00:09:59;;;;;;;5.40;4.03;;;14.50;99.90;;;;;;5054292;28;20427;-58
2022/05/11 00:12:25;;;;;;;4.85;4.45;;;14.50;99.90;;;;;;5055065;28;20099;-59
2022/05/11 00:14:51;;;;;;;7.50;5.85;;;14.50;99.90;;;;;;5055131;28;20024;-59
2022/05/11 00:17:16;;;;;;;7.45;5.53;;;14.40;99.90;;;;;;5055002;28;20013;-59
2022/05/11 00:19:42;;;;;;;8.40;6.80;;;14.40;99.90;;;;;;5054765;28;20055;-58
2022/05/11 00:22:08;;;;;;;5.10;4.60;;;14.30;99.90;;;;;;5055164;28;20025;-59
2022/05/11 00:24:34;;;;;;;6.50;4.78;;;14.20;99.90;;;;;;5054704;28;20025;-59
2022/05/11 00:27:02;;;;;;;6.80;5.20;;;14.20;99.90;;;;;;5055105;28;20035;-59
2022/05/11 00:29:28;;;;;;;4.80;4.40;;;14.20;99.90;;;;;;5036742;28;20041;-59
2022/05/11 00:31:54;;;;;;;5.05;4.00;;;14.20;99.90;;;;;;5054881;28;20049;-59
2022/05/11 00:34:20;;;;;;;5.28;4.35;;;14.20;99.90;;;;;;5054895;28;20029;-59
2022/05/11 00:36:46;;;;;;;4.00;3.60;;;14.30;99.90;;;;;;5054737;28;20024;-60
2022/05/11 00:39:12;;;;;;;5.70;4.38;;;14.20;99.90;;;;;;5036619;28;20025;-59
2022/05/11 00:41:41;;;;;;;6.22;5.22;;;14.20;99.90;;;;;;5054487;28;20463;-59
2022/05/11 00:44:09;;;;;;;5.10;4.43;;;14.20;99.90;;;;;;5054737;28;20017;-59
2022/05/11 00:46:48;;;;;;;6.75;4.85;;;14.20;99.90;;;;;;5054326;28;20036;-57
2022/05/11 00:49:38;;;;;;;6.13;5.38;;;14.20;99.90;;;;;;5037128;28;20037;-59
2022/05/11 00:52:15;;;;;;;7.97;5.57;;;14.10;99.90;;;;;;5054298;28;20484;-59
2022/05/11 00:54:51;;;;;;;8.07;6.30;;;14.10;99.90;;;;;;5054290;28;20033;-59
2022/05/11 00:57:24;;;;;;;6.05;4.93;;;14.00;99.90;;;;;;5037661;28;20395;-57
2022/05/11 00:59:52;;;;;;;;;;;14.00;99.90;;;;;;5054908;28;20032;-59
2022/05/11 01:02:19;;;;;;;7.07;5.90;;;13.90;99.90;;;;;;5054093;28;20337;-59
2022/05/11 01:04:46;;;;;;;4.85;4.32;;;13.80;99.90;;;;;;5054271;28;20021;-59
2022/05/11 01:07:13;;;;;;;6.65;5.18;;;13.80;99.90;;;;;;5054336;28;20032;-59
2022/05/11 01:09:40;;;;;;;7.13;5.68;;;13.80;99.90;;;;;;5035464;28;20448;-59
2022/05/11 01:12:11;;;;;;;4.65;3.85;;;13.80;99.90;;;;;;5053749;28;20025;-58
2022/05/11 01:14:39;;;;;;;4.22;3.80;;;13.70;99.90;;;;;;5054172;28;20017;-59
2022/05/11 01:17:06;;;;;;;3.60;2.90;;;13.70;99.90;;;;;;5036093;28;20108;-59
2022/05/11 01:19:35;;;;;;;3.90;3.30;;;13.70;99.90;;;;;;5053009;28;20048;-59
2022/05/11 01:22:16;;;;;;;3.60;3.30;;;13.70;99.90;;;;;;5054094;28;20017;-59
2022/05/11 01:24:47;;;;;;;3.95;3.35;;;13.80;99.90;;;;;;5053650;28;20029;-59
2022/05/11 01:27:30;;;;;;;5.80;3.58;;;13.80;99.90;;;;;;5036058;28;20530;-58
2022/05/11 01:30:18;;;;;;;4.03;3.60;;;13.70;99.90;;;;;;5053688;28;20028;-59
2022/05/11 01:32:55;;;;;;;3.45;3.15;;;13.70;99.90;;;;;;5035048;28;20394;-59
2022/05/11 01:35:58;;;;;;;3.92;3.53;;;13.70;99.90;;;;;;5053853;28;20053;-59
2022/05/11 01:38:49;;;;;;;3.45;2.78;;;13.70;99.90;;;;;;5053518;28;20123;-58
2022/05/11 01:41:33;;;;;;;4.78;4.05;;;13.70;99.90;;;;;;5053236;28;20017;-58
2022/05/11 01:43:59;;;;;;;;;;;13.60;99.90;;;;;;5053899;28;20021;-59
2022/05/11 01:46:25;;;;;;;4.53;3.80;;;13.60;99.90;;;;;;5053539;28;19913;-59
2022/05/11 01:48:51;;;;;;;6.28;4.20;;;13.40;99.90;;;;;;5053425;28;20028;-59
2022/05/11 01:51:18;;;;;;;4.40;3.65;;;13.40;99.90;;;;;;5053303;28;20387;-58
2022/05/11 01:53:45;;;;;;;4.28;3.88;;;13.40;99.90;;;;;;5053324;28;20503;-58
2022/05/11 01:56:14;;;;;;;3.83;3.53;;;13.40;99.90;;;;;;5053322;28;20032;-59
2022/05/11 01:58:40;;;;;;;5.20;3.97;;;13.30;99.90;;;;;;5053295;28;20021;-59
2022/05/11 02:01:06;;;;;;;4.85;4.35;;;13.30;99.90;;;;;;5053241;28;20491;-59
2022/05/11 02:03:32;;;;;;;5.07;3.85;;;13.30;99.90;;;;;;5053133;28;20033;-59
2022/05/11 02:08:44;;;;;;;3.97;3.00;;;13.20;99.90;;;;;;5052485;28;20075;-59
2022/05/11 02:11:12;;;;;;;4.75;3.92;;;13.30;99.90;;;;;;5053266;28;20387;-59
2022/05/11 02:13:37;;;;;;;6.68;5.00;;;13.30;99.90;;;;;;5053132;28;20021;-59
2022/05/11 02:16:04;;;;;;;5.25;4.10;;;13.10;99.90;;;;;;5052983;28;20032;-59
2022/05/11 02:18:29;;;;;;;3.67;3.30;;;13.10;99.90;;;;;;5053424;28;20100;-58
2022/05/11 02:20:55;;;;;;;3.35;3.05;;;13.10;99.90;;;;;;5052907;28;20099;-59
2022/05/11 02:23:23;;;;;;;3.20;2.90;;;13.10;99.90;;;;;;5053054;28;20032;-59
2022/05/11 02:25:50;;;;;;;4.40;3.28;;;13.10;99.90;;;;;;5052887;28;20036;-58
2022/05/11 02:28:18;;;;;;;4.60;4.20;;;13.10;99.90;;;;;;5053029;28;20100;-58
2022/05/11 02:30:45;;;;;;;5.90;3.97;;;13.10;99.90;;;;;;5055172;28;20031;-59
2022/05/11 02:33:12;;;;;;;4.13;3.70;;;13.00;99.90;;;;;;5057216;28;20025;-59
2022/05/11 02:35:39;;;;;;;3.30;3.00;;;12.90;99.90;;;;;;5057186;28;20024;-60
2022/05/11 02:38:17;;;;;;;4.70;4.15;;;13.00;99.90;;;;;;5056687;28;20472;-59
2022/05/11 02:40:43;;;;;;;4.55;3.58;;;12.90;99.90;;;;;;5056814;28;20028;-57
2022/05/11 02:43:11;;;;;;;3.67;3.25;;;12.90;99.90;;;;;;5056760;28;20029;-59
2022/05/11 02:45:39;;;;;;;3.63;3.08;;;12.90;99.90;;;;;;5056552;28;20144;-59
2022/05/11 02:48:07;;;;;;;2.92;2.63;;;12.90;99.90;;;;;;5039232;28;20029;-59
2022/05/11 02:50:39;;;;;;;2.70;2.47;;;12.90;99.90;;;;;;5056599;28;20025;-59
2022/05/11 02:53:09;;;;;;;3.08;2.78;;;12.90;99.90;;;;;;5056402;28;20033;-59
2022/05/11 02:55:40;;;;;;;3.90;3.20;;;12.90;99.90;;;;;;5056531;28;20036;-59
2022/05/11 02:58:06;;;;;;;3.67;3.38;;;12.90;99.90;;;;;;5056462;28;20021;-59
2022/05/11 03:00:34;;;;;;;8.57;4.10;;;12.80;99.90;;;;;;5056452;28;20494;-57
2022/05/11 03:03:05;;;;;;;3.40;3.05;;;12.80;99.90;;;;;;5056419;28;20494;-58
2022/05/11 03:05:31;;;;;;;3.60;3.30;;;12.80;99.90;;;;;;5056254;28;20433;-59
2022/05/11 03:07:57;;;;;;;4.20;3.33;;;12.70;99.90;;;;;;5056126;28;20021;-59
2022/05/11 03:10:23;;;;;;;4.55;4.07;;;12.70;99.90;;;;;;5055652;28;20104;-59
2022/05/11 03:12:49;;;;;;;3.50;3.13;;;12.70;99.90;;;;;;5056172;28;20482;-59
2022/05/11 03:15:15;;;;;;;2.88;2.63;;;12.70;99.90;;;;;;5056422;28;20025;-58
2022/05/11 03:17:41;;;;;;;3.47;3.17;;;12.70;99.90;;;;;;5056342;28;20025;-59
2022/05/11 03:20:09;;;;;;;3.25;2.92;;;12.70;99.90;;;;;;5055875;28;20060;-59
2022/05/11 03:22:35;;;;;;;3.10;2.80;;;12.70;99.90;;;;;;5056172;28;20104;-59
2022/05/11 03:25:01;;;;;;;3.88;3.55;;;12.70;99.90;;;;;;5056174;28;20112;-60
2022/05/11 03:27:27;;;;;;;3.53;3.10;;;12.60;99.90;;;;;;5038173;28;20401;-59
2022/05/11 03:29:54;;;;;;;3.25;2.97;;;12.60;99.90;;;;;;5056445;28;20021;-60
2022/05/11 03:35:05;;;;;;;4.63;3.63;;;12.60;99.90;;;;;;5056018;28;20072;-59
2022/05/11 03:37:31;;;;;;;3.80;3.40;;;12.60;99.90;;;;;;5055928;28;20440;-57
2022/05/11 03:39:57;;;;;;;4.13;3.28;;;12.60;99.90;;;;;;5055793;28;20095;-59
2022/05/11 03:42:28;;;;;;;3.65;3.30;;;12.60;99.90;;;;;;5054740;28;20057;-59
2022/05/11 03:44:55;;;;;;;3.20;2.80;;;12.60;99.90;;;;;;5055700;28;20033;-58
2022/05/11 03:47:20;;;;;;;3.58;2.80;;;12.60;99.90;;;;;;5055660;28;20017;-59
2022/05/11 03:49:46;;;;;;;4.15;2.92;;;12.60;99.90;;;;;;5037811;28;20494;-59
2022/05/11 03:52:16;;;;;;;6.35;4.35;;;12.60;99.90;;;;;;5037483;28;20028;-59
2022/05/11 03:54:42;;;;;;;4.03;3.38;;;12.60;99.90;;;;;;5055752;28;20029;-59
2022/05/11 03:57:07;;;;;;;4.03;3.40;;;12.50;99.90;;;;;;5055361;28;20032;-58
2022/05/11 03:59:33;;;;;;;4.43;3.50;;;12.50;99.90;;;;;;5055357;28;20129;-59
2022/05/11 04:01:59;;;;;;;4.18;3.08;;;12.50;99.90;;;;;;5055376;28;20017;-57
2022/05/11 04:04:24;;;;;;;4.88;4.20;;;12.60;99.90;;;;;;5055198;28;20025;-58
2022/05/11 04:06:50;;;;;;;3.33;3.03;;;12.60;99.90;;;;;;5055030;28;20029;-58
2022/05/11 04:09:16;;;;;;;4.63;3.42;;;12.60;99.90;;;;;;5054483;28;20036;-59
2022/05/11 04:11:42;;;;;;;7.10;4.20;;;12.60;99.90;;;;;;5055043;28;20387;-59
2022/05/11 04:14:07;;;;;;;4.57;3.40;;;12.60;99.90;;;;;;5055066;28;20062;-59
2022/05/11 04:16:33;;;;;;;5.10;3.60;;;12.60;99.90;;;;;;5055140;28;20032;-60
2022/05/11 04:18:59;;;;;;;3.47;3.17;;;12.70;99.90;;;;;;5054923;28;20037;-59
2022/05/11 04:21:26;;;;;;;5.45;3.45;;;12.70;99.90;;;;;;5054747;28;20526;-57
2022/05/11 04:23:51;;;;;;;3.45;3.15;;;12.70;99.90;;;;;;5055213;28;20100;-59
2022/05/11 04:26:17;;;;;;;3.97;3.58;;;12.80;99.90;;;;;;5054788;28;20575;-58
2022/05/11 04:28:43;;;;;;;4.10;3.47;;;12.80;99.90;;;;;;5054717;28;20031;-59
2022/05/11 04:31:11;;;;;;;4.07;3.00;;;12.90;99.90;;;;;;5037213;28;20108;-59
2022/05/11 04:33:37;;;;;;;4.07;3.63;;;12.90;99.90;;;;;;5054758;28;20021;-59
2022/05/11 04:36:04;;;;;;;6.65;5.05;;;13.00;99.90;;;;;;5054496;28;20542;-59
2022/05/11 04:38:30;;;;;;;6.18;5.55;;;13.00;99.90;;;;;;5054648;28;20055;-59
2022/05/11 04:40:56;;;;;;;5.15;4.60;;;12.90;99.90;;;;;;5054631;28;20025;-58
2022/05/11 04:43:22;;;;;;;7.20;5.47;;;12.90;99.90;;;;;;5054749;28;20021;-59
2022/05/11 04:45:48;;;;;;;7.43;5.03;;;12.80;99.90;;;;;;5054440;28;20036;-59
2022/05/11 04:48:16;;;;;;;13.95;6.55;;;12.80;99.90;;;;;;5054540;28;20025;-59
2022/05/11 04:50:43;;;;;;;7.20;5.85;;;12.70;99.90;;;;;;5054182;28;20025;-59
2022/05/11 04:53:11;;;;;;;9.55;6.43;;;12.60;99.90;;;;;;5054340;28;20041;-59
2022/05/11 04:55:37;;;;;;;9.70;7.78;;;12.70;99.90;;;;;;5054462;28;20026;-59
2022/05/11 04:58:04;;;;;;;8.57;7.10;;;12.70;99.90;;;;;;5231073;22;20138;-58
2022/05/11 05:00:31;;;;;;;7.93;6.75;;;12.60;99.90;;;;;;5094341;28;20016;-60
2022/05/11 05:02:56;;;;;;;6.18;5.57;;;12.60;99.90;;;;;;5087000;28;20028;-60
2022/05/11 05:05:22;;;;;;;5.97;5.38;;;12.70;99.90;;;;;;5094136;28;20035;-60
2022/05/11 05:07:48;;;;;;;7.32;5.60;;;12.80;99.90;;;;;;5094534;28;20028;-59
2022/05/11 05:10:15;;;;;;;8.00;6.55;;;13.00;99.90;;;;;;5094270;28;20466;-58
2022/05/11 05:12:42;;;;;;;7.00;6.30;;;13.10;99.90;;;;;;5094477;28;20111;-58
2022/05/11 05:15:12;;;;;;;9.98;7.20;;;13.00;99.90;;;;;;5094159;28;20486;-58
2022/05/11 05:17:38;;;;;;;9.30;7.82;;;13.00;99.90;;;;;;5094020;28;20016;-59
2022/05/11 05:20:07;;;;;;;6.68;5.25;;;13.00;99.90;;;;;;5092819;28;20059;-59
2022/05/11 05:22:36;;;;;;;5.55;4.95;;;13.10;99.90;;;;;;5092064;28;20024;-58
2022/05/11 05:25:02;;;;;;;4.88;4.43;;;13.20;99.90;;;;;;5092150;28;20035;-59
2022/05/11 05:27:28;;;;;;;8.35;4.88;;;13.40;99.90;;;;;;5090890;28;20012;-59
2022/05/11 05:32:42;;;;;;;17.33;9.45;;;13.70;99.90;;;;;;5090253;28;20027;-59
2022/05/11 05:35:11;;;;;;;11.18;7.88;;;13.80;99.90;;;;;;5089207;28;20552;-59
2022/05/11 05:37:38;;;;;;;8.27;7.45;;;13.70;99.90;;;;;;5058375;28;20052;-60
2022/05/11 05:40:05;;;;;;;9.50;7.25;;;13.70;99.90;;;;;;5052207;28;20321;-60
2022/05/11 05:42:31;;;;;;;9.98;7.63;;;13.70;99.90;;;;;;5053204;28;20471;-60
2022/05/11 05:44:57;;;;;;;7.60;6.57;;;13.60;99.90;;;;;;5053479;28;20028;-59
2022/05/11 05:47:23;;;;;;;7.50;5.40;;;13.70;99.90;;;;;;5061284;28;20360;-59
2022/05/11 05:49:49;;;;;;;6.70;5.10;;;13.90;99.90;;;;;;5067563;28;20079;-59
2022/05/11 05:52:21;;;;;;;6.43;5.82;;;14.10;99.90;;;;;;5073374;28;20450;-59
2022/05/11 05:54:48;;;;;;;5.63;4.80;;;14.40;99.90;;;;;;5073187;28;20032;-59
2022/05/11 05:57:17;;;;;;;5.00;4.60;;;14.60;99.90;;;;;;5073229;28;20053;-59
2022/05/11 05:59:43;;;;;;;5.80;4.68;;;14.80;99.90;;;;;;5073043;28;20021;-57
2022/05/11 06:02:13;;;;;;;4.72;4.22;;;15.00;99.90;;;;;;5057978;28;20094;-58
2022/05/11 06:04:50;;;;;;;4.18;3.78;;;15.10;99.90;;;;;;5069027;28;20352;-59
2022/05/11 06:07:18;;;;;;;4.95;3.97;;;15.30;99.90;;;;;;5071092;28;20093;-58
2022/05/11 06:09:44;;;;;;;4.85;3.90;;;15.50;99.90;;;;;;5068942;28;20018;-60
2022/05/11 06:12:12;;;;;;;5.50;5.00;;;15.60;99.90;;;;;;5064437;28;20062;-59
2022/05/11 06:14:39;;;;;;;4.38;3.97;;;15.80;99.90;;;;;;5065583;28;20489;-59
2022/05/11 06:17:20;;;;;;;8.65;4.18;;;15.90;99.90;;;;;;5066358;28;20025;-59
2022/05/11 06:19:46;;;;;;;7.25;4.70;;;16.10;99.90;;;;;;5070315;28;20491;-59
2022/05/11 06:22:12;;;;;;;4.13;3.72;;;16.20;99.90;;;;;;5073096;28;20056;-59
2022/05/11 06:24:38;;;;;;;7.60;5.22;;;16.40;99.90;;;;;;5073089;28;20029;-60
2022/05/11 06:27:04;;;;;;;4.97;3.85;;;16.60;99.90;;;;;;5072734;28;20474;-58
2022/05/11 06:29:30;;;;;;;3.80;3.50;;;16.70;99.90;;;;;;5072683;28;20056;-59
2022/05/11 06:31:55;;;;;;;6.30;5.30;;;16.80;99.90;;;;;;5072018;28;20063;-59
2022/05/11 06:34:21;;;;;;;4.40;3.83;;;16.90;99.90;;;;;;5072579;28;20047;-60
2022/05/11 06:36:49;;;;;;;7.80;5.13;;;17.00;99.90;;;;;;5072234;28;20099;-60
2022/05/11 06:39:14;;;;;;;3.72;3.42;;;17.20;99.90;;;;;;5072634;28;20050;-60
2022/05/11 06:41:40;;;;;;;4.07;3.78;;;17.40;99.90;;;;;;5072726;28;20025;-68
2022/05/11 06:44:08;;;;;;;6.10;4.65;;;17.50;99.90;;;;;;5053802;28;20020;-68
2022/05/11 06:46:34;;;;;;;5.60;4.40;;;17.70;99.90;;;;;;5053340;28;20025;-69
2022/05/11 06:49:00;;;;;;;5.15;4.20;;;17.80;99.90;;;;;;5051265;28;20364;-69
2022/05/11 06:51:25;;;;;;;5.85;4.85;;;17.90;99.90;;;;;;5040763;28;20028;-68
2022/05/11 06:59:33;;;;;;;3.92;3.53;;;18.30;99.90;;;;;;5034736;28;20045;-71
2022/05/11 07:02:03;;;;;;;5.35;4.35;;;18.60;99.90;;;;;;5090893;28;20359;-66
2022/05/11 07:04:29;;;;;;;3.67;3.38;;;20.10;99.90;;;;;;5092383;28;20473;-69
2022/05/11 07:06:56;;;;;;;3.80;3.50;;;22.90;97.40;;;;;;5073899;28;20032;-74
2022/05/11 07:09:25;;;;;;;3.70;2.80;;;25.70;93.20;;;;;;5044876;28;20365;-68
2022/05/11 07:14:35;;;;;;;2.30;2.10;;;29.70;64.90;;;;;;5089926;28;20038;-77
2022/05/11 07:17:05;;;;;;;2.42;2.20;;;31.10;57.10;;;;;;5090633;28;20028;-74
2022/05/11 07:19:33;;;;;;;2.13;1.98;;;32.20;52.10;;;;;;5075143;28;20025;-77
2022/05/11 07:21:59;;;;;;;5.22;2.72;;;32.90;47.90;;;;;;5096560;28;20017;-73
2022/05/11 07:24:25;;;;;;;3.65;2.85;;;33.30;48.10;;;;;;5076923;28;20027;-69
2022/05/11 07:26:51;;;;;;;4.68;2.80;;;33.80;46.60;;;;;;5095120;28;20057;-73
2022/05/11 07:29:17;;;;;;;4.32;3.28;;;33.90;47.10;;;;;;5096087;28;20016;-68
2022/05/11 07:31:45;;;;;;;3.10;2.60;;;34.30;45.30;;;;;;5096779;28;20085;-70
2022/05/11 07:34:13;;;;;;;3.15;2.25;;;34.70;45.40;;;;;;5058797;28;20025;-69
2022/05/11 07:36:39;;;;;;;6.75;3.42;;;35.00;44.50;;;;;;5054258;28;20082;-70
2022/05/11 07:39:05;;;;;;;5.70;3.35;;;35.00;43.10;;;;;;5064873;28;20033;-70
2022/05/11 07:41:31;;;;;;;5.00;3.47;;;35.20;44.60;;;;;;5073604;28;20028;-67
2022/05/11 07:43:57;;;;;;;3.33;2.47;;;35.20;43.20;;;;;;5080979;28;20047;-71
2022/05/11 07:46:25;;;;;;;4.90;3.15;;;35.50;40.70;;;;;;5092866;28;20085;-72
2022/05/11 07:48:51;;;;;;;2.83;2.63;;;35.70;40.40;;;;;;5080044;28;20033;-65
2022/05/11 07:51:17;;;;;;;4.93;3.00;;;35.90;40.50;;;;;;5090247;28;20024;-73
2022/05/11 07:53:44;;;;;;;3.38;2.85;;;36.00;40.60;;;;;;5089924;28;20110;-74
2022/05/11 08:01:38;;;;;;;3.90;3.42;;;35.50;39.90;;;;;;5071077;28;20047;-66
2022/05/11 08:04:04;;;;;;;4.50;2.88;;;35.50;40.30;;;;;;5073496;28;20033;-71
2022/05/11 08:06:30;;;;;;;4.72;2.80;;;35.30;42.70;;;;;;5057041;28;20045;-66
2022/05/11 08:08:56;;;;;;;4.93;3.35;;;35.30;41.10;;;;;;5061473;28;20037;-65
2022/05/11 08:11:21;;;;;;;3.60;3.08;;;35.30;41.70;;;;;;5062541;28;20090;-69
2022/05/11 08:13:47;;;;;;;5.00;3.58;;;35.00;42.70;;;;;;5065224;28;20407;-68
2022/05/11 08:16:13;;;;;;;4.93;3.42;;;35.20;40.70;;;;;;5059453;28;20029;-66
2022/05/11 08:18:39;;;;;;;5.25;3.92;;;35.00;41.30;;;;;;5061241;28;20021;-75
2022/05/11 08:21:05;;;;;;;6.57;3.92;;;35.00;40.50;;;;;;5060808;28;20036;-74
2022/05/11 08:23:31;;;;;;;6.65;4.03;;;35.30;41.70;;;;;;5053314;28;20031;-68
2022/05/11 08:25:57;;;;;;;4.35;2.97;;;35.00;39.90;;;;;;5052422;28;20033;-71
2022/05/11 08:28:25;;;;;;;3.47;3.17;;;34.80;42.90;;;;;;5060342;28;20078;-72
2022/05/11 08:33:40;;;;;;;5.47;3.90;;;35.00;41.40;;;;;;5075220;28;20501;-69
2022/05/11 08:36:10;;;;;;;8.48;4.28;;;35.50;39.80;;;;;;5078317;28;20065;-67
2022/05/11 08:38:41;;;;;;;6.00;3.70;;;34.80;39.90;;;;;;5059908;28;20028;-64
2022/05/11 08:41:26;;;;;;;8.88;4.15;;;34.80;41.60;;;;;;5064532;28;20032;-64
2022/05/11 08:43:58;;;;;;;7.25;4.00;;;34.90;41.30;;;;;;5043249;28;20057;-66
2022/05/11 08:46:34;;;;;;;6.10;3.40;;;35.10;41.10;;;;;;5059773;28;20052;-67
2022/05/11 08:49:17;;;;;;;5.85;3.75;;;35.30;40.00;;;;;;5042370;28;20131;-71
2022/05/11 08:51:56;;;;;;;6.82;3.72;;;35.30;40.00;;;;;;5066383;28;20447;-67
2022/05/11 08:54:31;;;;;;;5.57;3.88;;;35.20;39.50;;;;;;5063157;28;20042;-67
2022/05/11 08:56:58;;;;;;;7.22;3.33;;;35.00;41.60;;;;;;5062790;28;20049;-70
2022/05/11 08:59:33;;;;;;;3.97;3.17;;;34.30;39.60;;;;;;5042879;28;20547;-69
2022/05/11 09:02:21;;;;;;;4.30;3.03;;;34.00;44.40;;;;;;5072771;28;20218;-65
2022/05/11 09:04:59;;;;;;;4.93;3.13;;;34.40;43.20;;;;;;5060990;28;20025;-65
2022/05/11 09:07:27;;;;;;;4.93;2.75;;;34.50;42.00;;;;;;5053208;28;20037;-69
2022/05/11 09:09:53;;;;;;;5.43;2.90;;;34.60;40.00;;;;;;5057092;28;20050;-69
2022/05/11 09:12:20;;;;;;;4.65;2.78;;;34.60;40.10;;;;;;5069574;28;20111;-65
2022/05/11 09:14:51;;;;;;;2.47;2.10;;;34.90;40.90;;;;;;5053375;28;20024;-66
2022/05/11 09:17:26;;;;;;;3.50;2.35;;;34.90;40.60;;;;;;5055885;28;20082;-66
2022/05/11 09:20:33;;;;;;;7.28;2.85;;;34.90;37.90;;;;;;5060623;28;20028;-74
2022/05/11 09:23:02;;;;;;;3.30;2.38;;;34.20;42.30;;;;;;5018374;28;20086;-68
2022/05/11 09:25:31;;;;;;;3.10;2.45;;;33.80;42.10;;;;;;5061109;28;20036;-68
2022/05/11 09:28:20;;;;;;;2.28;2.00;;;33.70;42.40;;;;;;5061891;28;20032;-67
2022/05/11 09:31:08;;;;;;;2.30;2.05;;;34.10;41.10;;;;;;5036031;28;20029;-70
2022/05/11 09:33:35;;;;;;;3.13;2.13;;;34.70;40.70;;;;;;5059863;28;20032;-68
2022/05/11 09:36:03;;;;;;;3.40;2.20;;;34.60;39.90;;;;;;5062170;28;20070;-66
2022/05/11 09:38:38;;;;;;;3.88;2.33;;;34.40;39.00;;;;;;5057119;28;20390;-70
2022/05/11 09:41:22;;;;;;;4.68;2.65;;;34.40;40.10;;;;;;5057779;28;20032;-68
2022/05/11 09:43:58;;;;;;;5.35;2.60;;;34.30;41.50;;;;;;5059346;28;20020;-68
2022/05/11 09:46:27;;;;;;;2.83;2.33;;;34.40;41.20;;;;;;5058079;28;20502;-73
2022/05/11 09:48:55;;;;;;;3.10;2.00;;;34.40;43.20;;;;;;5058445;28;20024;-66
2022/05/11 09:51:33;;;;;;;6.63;2.22;;;34.80;40.70;;;;;;5055048;28;20529;-69
2022/05/11 09:54:28;;;;;;;3.25;2.20;;;35.00;41.80;;;;;;5055095;28;20023;-66
2022/05/11 09:57:09;;;;;;;2.33;1.83;;;35.00;41.70;;;;;;5014783;28;20486;-65
2022/05/11 09:59:43;;;;;;;1.52;1.42;;;34.80;37.20;;;;;;5046403;28;20021;-64
2022/05/11 10:02:27;;;;;;;2.20;1.60;;;34.60;37.80;;;;;;5047809;28;20486;-69
2022/05/11 10:05:11;;;;;;;3.00;1.85;;;34.80;39.80;;;;;;5048692;28;20037;-70
2022/05/11 10:07:45;;;;;;;1.60;1.50;;;34.90;39.50;;;;;;5031555;28;20025;-66
2022/05/11 10:10:17;;;;;;;3.28;2.00;;;35.00;39.30;;;;;;5050397;28;20356;-70
2022/05/11 10:12:46;;;;;;;2.55;1.73;;;34.90;37.50;;;;;;5051672;28;20431;-72
2022/05/11 10:24:36;;;;;;;1.95;1.80;;;33.90;37.00;;;;;;5049268;28;20028;-70
2022/05/11 10:27:42;;;;;;;2.00;1.48;;;34.20;36.70;;;;;;5029198;28;20041;-73
2022/05/11 10:30:32;;;;;;;2.40;1.70;;;34.00;37.30;;;;;;5066623;28;20024;-70
2022/05/11 10:33:36;;;;;;;1.58;1.30;;;34.00;40.80;;;;;;5075021;28;20028;-70
2022/05/11 10:36:13;;;;;;;2.63;1.63;;;34.60;38.20;;;;;;5075998;28;20052;-66
2022/05/11 10:39:10;;;;;;;2.03;1.40;;;34.80;38.90;;;;;;5063407;28;20023;-68
2022/05/11 10:42:13;;;;;;;1.83;1.70;;;34.90;39.70;;;;;;5066452;28;20478;-67
2022/05/11 10:45:13;;;;;;;1.98;1.80;;;35.00;39.00;;;;;;5028408;28;20131;-70
2022/05/11 10:48:17;;;;;;;2.33;1.85;;;35.00;40.10;;;;;;5048825;28;20048;-71
2022/05/11 10:50:51;;;;;;;1.83;1.70;;;35.00;35.80;;;;;;5041093;28;20029;-66
2022/05/11 10:53:46;;;;;;;2.38;1.90;;;35.10;36.00;;;;;;5064125;28;20107;-68
2022/05/11 10:56:58;;;;;;;2.38;2.03;;;35.00;36.00;;;;;;5076242;28;20541;-70
2022/05/11 11:00:01;;;;;;;1.85;1.73;;;34.60;36.90;;;;;;4975324;28;20038;-69
2022/05/11 11:02:46;;;;;;;3.45;2.45;;;34.60;36.70;;;;;;4978332;28;20043;-72
2022/05/11 11:05:32;;;;;;;3.40;1.98;;;34.70;36.80;;;;;;4984651;28;20069;-70
2022/05/11 11:08:42;;;;;;;2.47;1.80;;;34.50;35.60;;;;;;5018257;28;20526;-68
2022/05/11 11:11:34;;;;;;;2.65;1.98;;;34.40;38.00;;;;;;4972745;28;20077;-71
2022/05/11 11:14:03;;;;;;;2.63;1.80;;;34.40;38.90;;;;;;5034240;28;20053;-76
2022/05/11 11:16:35;;;;;;;4.22;2.15;;;34.30;37.40;;;;;;5035010;28;20037;-67
2022/05/11 11:19:03;;;;;;;4.88;2.50;;;33.90;36.70;;;;;;5040845;28;20029;-65
2022/05/11 11:21:30;;;;;;;9.15;5.43;;;34.20;32.80;;;;;;5038236;28;20021;-64
2022/05/11 11:24:22;;;;;;;2.70;1.90;;;34.10;35.50;;;;;;5050639;28;20022;-67
2022/05/11 11:26:57;;;;;;;3.72;1.85;;;34.20;35.90;;;;;;5049847;28;20494;-68
2022/05/11 11:29:31;;;;;;;3.00;1.80;;;34.00;36.30;;;;;;5050227;28;20110;-66
2022/05/11 11:31:57;;;;;;;3.53;2.20;;;34.00;34.00;;;;;;5049188;28;20103;-69
2022/05/11 11:34:30;;;;;;;2.78;1.45;;;34.20;38.00;;;;;;5048990;28;20155;-68
2022/05/11 11:36:55;;;;;;;;;;;34.50;36.60;;;;;;5043938;28;20059;-71
2022/05/11 11:39:53;;;;;;;2.88;1.70;;;34.70;40.80;;;;;;5029296;28;19927;-65
2022/05/11 11:42:31;;;;;;;2.58;1.60;;;34.80;35.00;;;;;;5049088;28;20088;-70
2022/05/11 11:44:57;;;;;;;2.20;1.70;;;35.00;37.00;;;;;;5052410;28;20032;-73
2022/05/11 11:47:26;;;;;;;1.65;1.40;;;34.80;32.70;;;;;;5029411;28;20030;-68
2022/05/11 11:49:56;;;;;;;8.43;3.03;;;34.60;32.40;;;;;;5028270;28;20029;-73
2022/05/11 11:52:45;;;;;;;3.92;2.20;;;34.80;33.50;;;;;;5034941;28;20037;-69
2022/05/11 11:55:32;;;;;;;3.60;2.00;;;34.90;36.00;;;;;;5043284;28;20082;-68
2022/05/11 11:58:38;;;;;;;3.40;2.08;;;34.80;33.70;;;;;;5063161;28;20047;-63
2022/05/11 12:01:09;;;;;;;3.63;2.22;;;34.50;32.30;;;;;;5069284;28;20044;-61
2022/05/11 12:03:51;;;;;;;2.45;1.70;;;34.40;33.80;;;;;;5072053;28;20024;-63
2022/05/11 12:17:37;;;;;;;1.80;1.70;;;35.10;35.90;;;;;;5061551;28;20039;-65
2022/05/11 12:20:14;;;;;;;2.28;1.73;;;34.80;36.40;;;;;;5032146;28;20032;-66
2022/05/11 12:22:44;;;;;;;1.83;1.55;;;34.80;36.40;;;;;;5043742;28;20029;-65
2022/05/11 12:25:26;;;;;;;1.70;1.60;;;34.50;37.80;;;;;;5038561;28;20377;-63
2022/05/11 12:27:53;;;;;;;1.45;1.33;;;34.40;37.80;;;;;;5033782;28;20022;-65
2022/05/11 12:30:27;;;;;;;2.10;1.77;;;34.60;34.30;;;;;;5039676;28;20028;-64
2022/05/11 12:33:03;;;;;;;1.73;1.60;;;34.90;31.40;;;;;;5032720;28;20029;-62
2022/05/11 12:35:45;;;;;;;3.20;1.58;;;35.10;31.40;;;;;;5030332;28;20112;-61
2022/05/11 12:38:23;;;;;;;2.25;1.98;;;35.00;31.90;;;;;;5033006;28;20105;-67
2022/05/11 12:40:51;;;;;;;2.45;1.70;;;34.80;31.60;;;;;;5033324;28;20124;-62
2022/05/11 12:43:22;;;;;;;2.50;1.60;;;34.60;30.90;;;;;;5033118;28;20391;-63
2022/05/11 12:45:48;;;;;;;2.35;1.50;;;34.60;31.40;;;;;;5033612;28;20120;-63
2022/05/11 12:48:19;;;;;;;2.33;1.85;;;34.40;32.60;;;;;;5033546;28;20456;-62
2022/05/11 12:51:11;;;;;;;2.70;1.67;;;34.70;32.20;;;;;;5032852;28;20357;-63
2022/05/11 12:53:39;;;;;;;2.13;1.48;;;34.90;35.20;;;;;;5028254;28;20045;-65
2022/05/11 12:56:17;;;;;;;2.28;1.80;;;34.50;32.50;;;;;;5032655;28;20029;-64
2022/05/11 12:58:55;;;;;;;2.00;1.90;;;34.20;32.60;;;;;;5050442;28;20087;-63
2022/05/11 13:01:24;;;;;;;1.70;1.58;;;34.60;34.70;;;;;;5051620;28;20104;-64
2022/05/11 13:03:52;;;;;;;2.15;1.55;;;34.90;37.30;;;;;;5051441;28;20369;-61
2022/05/11 13:06:26;;;;;;;1.45;1.35;;;35.00;38.10;;;;;;5052049;28;20036;-65
2022/05/11 13:08:56;;;;;;;1.60;1.50;;;35.00;31.60;;;;;;5052778;28;20041;-62
2022/05/11 13:11:26;;;;;;;1.48;1.33;;;35.20;36.40;;;;;;5052945;28;20025;-61
2022/05/11 13:13:55;;;;;;;1.52;1.35;;;35.20;33.80;;;;;;5051921;28;20013;-63
2022/05/11 13:16:31;;;;;;;2.00;1.80;;;35.10;33.80;;;;;;5053258;28;20108;-65
2022/05/11 13:19:12;;;;;;;1.70;1.60;;;34.90;32.50;;;;;;5053462;28;20070;-65
2022/05/11 13:21:38;;;;;;;2.47;1.50;;;34.60;33.00;;;;;;5053086;28;20017;-65
2022/05/11 13:24:08;;;;;;;1.88;1.67;;;34.70;35.60;;;;;;5053335;28;20498;-62
2022/05/11 13:26:41;;;;;;;3.30;2.08;;;34.80;35.30;;;;;;5053639;28;20025;-63
2022/05/11 13:29:23;;;;;;;2.20;2.00;;;34.40;29.90;;;;;;5053682;28;20040;-62
2022/05/11 13:32:07;;;;;;;2.00;1.70;;;34.00;31.70;;;;;;5053476;28;20375;-64
2022/05/11 13:34:39;;;;;;;2.65;1.42;;;34.10;31.40;;;;;;5053598;28;20032;-65
2022/05/11 13:37:22;;;;;;;2.45;1.77;;;33.80;31.20;;;;;;5053520;28;20052;-63
2022/05/11 13:39:49;;;;;;;2.60;1.95;;;33.70;36.20;;;;;;5053635;28;20055;-65
2022/05/11 13:42:21;;;;;;;3.00;1.55;;;34.10;35.70;;;;;;5053420;28;20021;-65
2022/05/11 13:45:02;;;;;;;3.45;1.70;;;34.20;32.30;;;;;;5052937;28;20057;-63
2022/05/11 13:50:37;;;;;;;2.65;1.58;;;34.30;32.60;;;;;;5053480;28;20091;-65
2022/05/11 13:53:21;;;;;;;1.60;1.50;;;34.70;31.00;;;;;;5053491;28;20387;-63
2022/05/11 13:56:06;;;;;;;2.00;1.48;;;34.60;32.20;;;;;;5053585;28;20094;-65
2022/05/11 13:58:39;;;;;;;2.67;1.80;;;34.70;35.20;;;;;;5053111;28;20402;-64